Flag Hope — D5DW5 — position and weather

sailwx.info

Track history (hours):
 
Tides and Currents Weather Stations Pressure Air Temp Water Temp Dewpoint Dewpoint Depression Visibility Wind Speed Wind Dir Waves Ship Positions

Flag Hope

Last reported at 2018-Feb-19 18:06 UTC. Time now 2018-Feb-23 03:05 UTC.
Position N 46°13' E 030°56'.

Length 229 m; draft 13 m.

Type: Cargo ship. MMSI: 636015989.

Date/timePositionNaut miles runAvg speedWind from/ knotsBaromVisibWave heightAir tempDewpointWater temp
2018-Feb-19 18:06N 46°13' E 030°56'2 9.8
2018-Feb-19 17:51N 46°15' E 030°54'410.6
2018-Feb-19 17:29N 46°19' E 030°55'510.6
2018-Feb-19 16:58N 46°24' E 030°55'610.5
2018-Feb-19 16:23N 46°30' E 030°55'3 8.3
2018-Feb-19 16:00N 46°33' E 030°58'11 0.3
2018-Feb-17 23:19N 46°34' E 031°14'0 0.0
2018-Feb-17 22:58N 46°34' E 031°14'0 0.0
2018-Feb-17 22:28N 46°34' E 031°14'0 0.0
2018-Feb-17 21:58N 46°34' E 031°14'0 0.0
2018-Feb-17 21:28N 46°34' E 031°14'0 0.0
2018-Feb-17 20:58N 46°34' E 031°14'0 0.0
2018-Feb-17 20:28N 46°34' E 031°14'0 0.0
2018-Feb-17 19:58N 46°34' E 031°14'0 0.0
2018-Feb-17 19:28N 46°34' E 031°14'0 0.0
2018-Feb-17 18:58N 46°34' E 031°14'0 0.0
2018-Feb-17 18:28N 46°34' E 031°14'0 0.0
2018-Feb-17 17:58N 46°34' E 031°14'0 0.0
2018-Feb-17 17:28N 46°34' E 031°14'0 0.0
2018-Feb-17 16:58N 46°34' E 031°14'0 0.0
2018-Feb-17 16:28N 46°34' E 031°14'0 0.0
2018-Feb-17 15:58N 46°34' E 031°14'0 0.0
2018-Feb-17 15:28N 46°34' E 031°14'0 0.0
2018-Feb-17 14:58N 46°34' E 031°14'0 0.0
2018-Feb-17 14:28N 46°34' E 031°14'0 0.0
2018-Feb-17 13:58N 46°34' E 031°14'0 0.0
2018-Feb-17 13:28N 46°34' E 031°14'0 0.0
2018-Feb-17 12:58N 46°34' E 031°14'0 0.0
2018-Feb-17 12:28N 46°34' E 031°14'0 0.0
2018-Feb-17 11:58N 46°34' E 031°14'0 0.0
2018-Feb-17 11:28N 46°34' E 031°14'0 0.0
2018-Feb-17 10:58N 46°34' E 031°14'0 0.0
2018-Feb-17 10:25N 46°34' E 031°14'0 0.0
2018-Feb-17 09:55N 46°34' E 031°14'0 0.1
2018-Feb-17 09:28N 46°34' E 031°14'0 0.0
2018-Feb-17 08:58N 46°34' E 031°14'0 0.0
2018-Feb-17 08:25N 46°34' E 031°14'0 0.0
2018-Feb-17 07:58N 46°34' E 031°14'0 0.0
2018-Feb-17 07:28N 46°34' E 031°14'0 0.0
2018-Feb-17 06:31N 46°34' E 031°14'0 0.1
2018-Feb-17 06:28N 46°34' E 031°14'0 0.1
2018-Feb-17 05:55N 46°34' E 031°14'0 0.1
2018-Feb-17 02:37N 46°34' E 031°14'0 0.0
2018-Feb-17 00:13N 46°34' E 031°14'0 0.0
2018-Feb-16 23:55N 46°34' E 031°14'0 0.0
2018-Feb-16 23:22N 46°34' E 031°14'0 0.0
2018-Feb-16 22:55N 46°34' E 031°14'0 0.0
2018-Feb-16 20:37N 46°34' E 031°14'0 0.0
2018-Feb-16 20:13N 46°34' E 031°14'  
2018-Feb-14 11:51N 46°35' E 031°14'0 1.4
2018-Feb-14 11:29N 46°34' E 031°14'12 7.6
2018-Feb-14 09:54N 46°35' E 031°32'3 8.9
2018-Feb-14 09:30N 46°35' E 031°37'5 8.9
2018-Feb-14 09:00N 46°36' E 031°43'5 8.8
2018-Feb-14 08:28N 46°36' E 031°50'4 8.5
2018-Feb-14 08:01N 46°38' E 031°55'4 8.5
2018-Feb-14 07:29N 46°43' E 031°56'4 7.8
2018-Feb-14 07:00N 46°46' E 031°53'4 8.1
2018-Feb-14 06:30N 46°50' E 031°56'5 9.1
2018-Feb-14 06:00N 46°53' E 032°00'3 6.0
2018-Feb-14 05:30N 46°56' E 031°60'1 1.7
2018-Feb-14 04:59N 46°56' E 031°59'0 0.0
2018-Feb-14 04:29N 46°56' E 031°59'0 0.0
2018-Feb-14 03:59N 46°56' E 031°59'0 0.0
2018-Feb-14 03:29N 46°56' E 031°59'0 0.0
2018-Feb-14 02:59N 46°56' E 031°59'0 0.0
2018-Feb-14 02:29N 46°56' E 031°59'0 0.0
2018-Feb-14 01:59N 46°56' E 031°59'0 0.0
2018-Feb-14 01:29N 46°56' E 031°59'0 0.0
2018-Feb-14 00:59N 46°56' E 031°59'0 0.0
2018-Feb-14 00:29N 46°56' E 031°59'0 0.0
2018-Feb-13 23:59N 46°56' E 031°59'0 0.0
2018-Feb-13 23:29N 46°56' E 031°59'0 0.0
2018-Feb-13 22:59N 46°56' E 031°59'0 0.0
2018-Feb-13 22:29N 46°56' E 031°59'0 0.0
2018-Feb-13 21:59N 46°56' E 031°59'0 0.0
2018-Feb-13 21:29N 46°56' E 031°59'0 0.0
2018-Feb-13 20:59N 46°56' E 031°59'0 0.0
2018-Feb-13 20:29N 46°56' E 031°59'0 0.0
2018-Feb-13 19:59N 46°56' E 031°59'0 0.0
2018-Feb-13 19:29N 46°56' E 031°59'0 0.0
2018-Feb-13 18:59N 46°56' E 031°59'0 0.0
2018-Feb-13 18:29N 46°56' E 031°59'0 0.0
2018-Feb-13 17:59N 46°56' E 031°59'0 0.0
2018-Feb-13 17:29N 46°56' E 031°59'0 0.0
2018-Feb-13 16:59N 46°56' E 031°59'0 0.0
2018-Feb-13 16:29N 46°56' E 031°59'0 0.0
2018-Feb-13 15:59N 46°56' E 031°59'0 0.1
2018-Feb-13 15:29N 46°57' E 031°59'0 0.0
2018-Feb-13 14:59N 46°57' E 031°59'0 0.0
2018-Feb-13 14:29N 46°57' E 031°59'0 0.0
2018-Feb-13 13:59N 46°56' E 031°59'0 0.0
2018-Feb-13 13:29N 46°57' E 031°59'0 0.0
2018-Feb-13 12:59N 46°57' E 031°59'0 0.0
2018-Feb-13 12:29N 46°57' E 031°59'0 0.0
2018-Feb-13 11:59N 46°57' E 031°59'0 0.0
2018-Feb-13 11:29N 46°56' E 031°59'0 0.0
2018-Feb-13 10:59N 46°57' E 031°59'0 0.0
2018-Feb-13 10:29N 46°57' E 031°59'0 0.0
2018-Feb-13 09:59N 46°57' E 031°59'0 0.0
2018-Feb-13 09:29N 46°57' E 031°59'0 0.0
2018-Feb-13 08:59N 46°57' E 031°59'0 0.0
2018-Feb-13 08:29N 46°57' E 031°59'0 0.0
2018-Feb-13 07:59N 46°57' E 031°59'0 0.0
2018-Feb-13 07:29N 46°57' E 031°59'0 0.0
2018-Feb-13 06:59N 46°57' E 031°59'0 0.0
2018-Feb-13 06:29N 46°57' E 031°59'0 0.0
2018-Feb-13 05:59N 46°57' E 031°59'0 0.0
2018-Feb-13 05:29N 46°57' E 031°59'0 0.0
2018-Feb-13 04:59N 46°57' E 031°59'0 0.0
2018-Feb-13 04:29N 46°57' E 031°59'0 0.0
2018-Feb-13 03:59N 46°57' E 031°59'0 0.0
2018-Feb-13 03:29N 46°57' E 031°59'0 0.0
2018-Feb-13 02:59N 46°57' E 031°59'0 0.0
2018-Feb-13 02:29N 46°57' E 031°59'0 0.0
2018-Feb-13 01:59N 46°57' E 031°59'0 0.0
2018-Feb-13 01:29N 46°57' E 031°59'0 0.0
2018-Feb-13 00:59N 46°57' E 031°59'0 0.0
2018-Feb-13 00:29N 46°57' E 031°59'0 0.0
2018-Feb-12 23:59N 46°57' E 031°59'0 0.0
2018-Feb-12 23:29N 46°57' E 031°59'0 0.0
2018-Feb-12 22:59N 46°57' E 031°59'0 0.0
2018-Feb-12 22:29N 46°57' E 031°59'0 0.0
2018-Feb-12 21:59N 46°57' E 031°59'0 0.0
2018-Feb-12 21:29N 46°57' E 031°59'0 0.0
2018-Feb-12 20:59N 46°57' E 031°59'0 0.0
2018-Feb-12 20:29N 46°57' E 031°59'0 0.0
2018-Feb-12 19:59N 46°57' E 031°59'0 0.0
2018-Feb-12 19:29N 46°57' E 031°59'0 0.0
2018-Feb-12 18:59N 46°57' E 031°59'0 0.0
2018-Feb-12 18:29N 46°57' E 031°59'0 0.0
2018-Feb-12 17:59N 46°57' E 031°59'0 0.0
2018-Feb-12 17:29N 46°57' E 031°59'0 0.0
2018-Feb-12 16:59N 46°57' E 031°59'0 0.0
2018-Feb-12 16:29N 46°57' E 031°59'0 0.0
2018-Feb-12 15:59N 46°57' E 031°59'0 0.0
2018-Feb-12 15:17N 46°57' E 031°59'0 0.0
2018-Feb-12 14:59N 46°57' E 031°59'0 0.0
2018-Feb-12 14:29N 46°57' E 031°59'0 0.0
2018-Feb-12 13:59N 46°57' E 031°59'0 0.0
2018-Feb-12 13:26N 46°57' E 031°59'0 0.0
2018-Feb-12 12:59N 46°57' E 031°59'0 0.0
2018-Feb-12 12:29N 46°57' E 031°59'0 0.0
2018-Feb-12 11:59N 46°57' E 031°59'0 0.0
2018-Feb-12 11:29N 46°57' E 031°59'0 0.0
2018-Feb-12 10:59N 46°57' E 031°59'0 0.0
2018-Feb-12 10:29N 46°57' E 031°59'0 0.0
2018-Feb-12 09:59N 46°57' E 031°59'0 0.0
2018-Feb-12 09:29N 46°57' E 031°59'0 0.0
2018-Feb-12 08:59N 46°57' E 031°59'0 0.0
2018-Feb-12 08:29N 46°57' E 031°59'0 0.0
2018-Feb-12 07:59N 46°57' E 031°59'0 0.0
2018-Feb-12 07:29N 46°57' E 031°59'0 0.0
2018-Feb-12 06:59N 46°57' E 031°59'0 0.0
2018-Feb-12 06:29N 46°57' E 031°59'0 0.0
2018-Feb-12 05:59N 46°57' E 031°59'0 0.0
2018-Feb-12 05:29N 46°57' E 031°59'0 0.0
2018-Feb-12 04:59N 46°57' E 031°59'0 0.0
2018-Feb-12 04:29N 46°57' E 031°59'0 0.0
2018-Feb-12 03:59N 46°57' E 031°59'0 0.0
2018-Feb-12 03:29N 46°57' E 031°59'0 0.0
2018-Feb-12 02:59N 46°57' E 031°59'0 0.0
2018-Feb-12 02:29N 46°57' E 031°59'0 0.0
2018-Feb-12 01:59N 46°56' E 031°59'0 0.0
2018-Feb-12 01:29N 46°57' E 031°59'0 0.0
2018-Feb-12 00:59N 46°57' E 031°59'0 0.0
2018-Feb-12 00:29N 46°57' E 031°59'0 0.0
2018-Feb-11 23:59N 46°57' E 031°59'0 0.0
2018-Feb-11 23:29N 46°57' E 031°59'0 0.0
2018-Feb-11 22:59N 46°57' E 031°59'0 0.0
2018-Feb-11 22:29N 46°56' E 031°59'0 0.0
2018-Feb-11 21:59N 46°57' E 031°59'0 0.0
2018-Feb-11 21:29N 46°57' E 031°59'0 0.0
2018-Feb-11 20:59N 46°57' E 031°59'0 0.0
2018-Feb-11 20:29N 46°57' E 031°59'0 0.0
2018-Feb-11 19:59N 46°57' E 031°59'0 0.0
2018-Feb-11 19:29N 46°57' E 031°59'0 0.0
2018-Feb-11 18:59N 46°57' E 031°59'0 0.0
2018-Feb-11 18:29N 46°57' E 031°59'0 0.0
2018-Feb-11 17:59N 46°57' E 031°59'0 0.0
2018-Feb-11 17:29N 46°57' E 031°59'0 0.0
2018-Feb-11 16:59N 46°57' E 031°59'0 0.0
2018-Feb-11 16:29N 46°57' E 031°59'0 0.0
2018-Feb-11 15:59N 46°57' E 031°59'0 0.0
2018-Feb-11 15:29N 46°57' E 031°59'0 0.0
2018-Feb-11 14:59N 46°57' E 031°59'0 0.0
2018-Feb-11 14:29N 46°57' E 031°59'0 0.0
2018-Feb-11 13:59N 46°57' E 031°59'0 0.0
2018-Feb-11 13:29N 46°57' E 031°59'0 0.0
2018-Feb-11 12:59N 46°57' E 031°59'0 0.0
2018-Feb-11 12:29N 46°57' E 031°59'0 0.0
2018-Feb-11 11:59N 46°57' E 031°59'0 0.0
2018-Feb-11 11:29N 46°56' E 031°59'0 0.0
2018-Feb-11 10:59N 46°56' E 031°59'0 0.0
2018-Feb-11 10:29N 46°57' E 031°59'0 0.0
2018-Feb-11 09:59N 46°57' E 031°59'0 0.0
2018-Feb-11 09:29N 46°57' E 031°59'0 0.0
2018-Feb-11 08:59N 46°57' E 031°59'0 0.0
2018-Feb-11 08:29N 46°57' E 031°59'0 0.0
2018-Feb-11 07:59N 46°57' E 031°59'0 0.0
2018-Feb-11 07:29N 46°57' E 031°59'0 0.0
2018-Feb-11 06:59N 46°57' E 031°59'0 0.0
2018-Feb-11 06:29N 46°57' E 031°59'0 0.0
2018-Feb-11 05:59N 46°57' E 031°59'0 0.0
2018-Feb-11 05:29N 46°57' E 031°59'0 0.0
2018-Feb-11 04:59N 46°57' E 031°59'0 0.0
2018-Feb-11 04:29N 46°57' E 031°59'0 0.0
2018-Feb-11 03:59N 46°57' E 031°59'0 0.0
2018-Feb-11 03:29N 46°57' E 031°59'0 0.0
2018-Feb-11 02:59N 46°57' E 031°59'0 0.0
2018-Feb-11 02:29N 46°57' E 031°59'0 0.0
2018-Feb-11 01:59N 46°57' E 031°59'0 0.0
2018-Feb-11 01:29N 46°56' E 031°59'0 0.0
2018-Feb-11 00:59N 46°57' E 031°59'0 0.0
2018-Feb-11 00:29N 46°57' E 031°59'0 0.0
2018-Feb-10 23:59N 46°57' E 031°59'0 0.0
2018-Feb-10 23:29N 46°57' E 031°59'0 0.0
2018-Feb-10 22:59N 46°57' E 031°59'0 0.0
2018-Feb-10 22:29N 46°57' E 031°59'0 0.0
2018-Feb-10 21:59N 46°57' E 031°59'0 0.0
2018-Feb-10 21:29N 46°57' E 031°59'0 0.0
2018-Feb-10 20:59N 46°57' E 031°59'0 0.0
2018-Feb-10 20:29N 46°57' E 031°59'0 0.0
2018-Feb-10 19:59N 46°57' E 031°59'0 0.0
2018-Feb-10 19:29N 46°57' E 031°59'0 0.0
2018-Feb-10 18:59N 46°57' E 031°59'0 0.0
2018-Feb-10 18:29N 46°57' E 031°59'0 0.0
2018-Feb-10 17:59N 46°57' E 031°59'0 0.0
2018-Feb-10 17:29N 46°57' E 031°59'0 0.0
2018-Feb-10 16:59N 46°57' E 031°59'0 0.0
2018-Feb-10 16:29N 46°57' E 031°59'0 0.0
2018-Feb-10 15:59N 46°57' E 031°59'0 0.0
2018-Feb-10 15:29N 46°57' E 031°59'0 0.0
2018-Feb-10 14:59N 46°57' E 031°59'0 0.1
2018-Feb-10 14:29N 46°56' E 031°59'0 0.0
2018-Feb-10 13:59N 46°56' E 031°59'0 0.0
2018-Feb-10 13:29N 46°56' E 031°59'0 0.0
2018-Feb-10 12:59N 46°56' E 031°59'0 0.0
2018-Feb-10 12:29N 46°56' E 031°59'0 0.0
2018-Feb-10 11:59N 46°56' E 031°59'0 0.0
2018-Feb-10 11:29N 46°56' E 031°59'0 0.0
2018-Feb-10 10:59N 46°56' E 031°59'0 0.0
2018-Feb-10 10:29N 46°56' E 031°59'0 0.0
2018-Feb-10 09:59N 46°56' E 031°59'0 0.0
2018-Feb-10 09:29N 46°56' E 031°59'0 0.0
2018-Feb-10 08:59N 46°56' E 031°59'0 0.0
2018-Feb-10 08:29N 46°56' E 031°59'0 0.0
2018-Feb-10 07:59N 46°56' E 031°59'0 0.0
2018-Feb-10 07:29N 46°56' E 031°59'0 0.0
2018-Feb-10 06:59N 46°56' E 031°59'0 0.0
2018-Feb-10 06:29N 46°56' E 031°59'0 0.0
2018-Feb-10 05:59N 46°56' E 031°59'0 0.0
2018-Feb-10 05:29N 46°56' E 031°59'0 0.0
2018-Feb-10 04:59N 46°56' E 031°59'0 0.0
2018-Feb-10 04:29N 46°56' E 031°59'0 0.0
2018-Feb-10 03:59N 46°56' E 031°59'0 0.0
2018-Feb-10 03:29N 46°56' E 031°59'0 0.0
2018-Feb-10 02:59N 46°56' E 031°59'0 0.0
2018-Feb-10 02:29N 46°56' E 031°59'0 0.0
2018-Feb-10 01:59N 46°56' E 031°59'0 0.0
2018-Feb-10 01:29N 46°56' E 031°59'0 0.0
2018-Feb-10 00:59N 46°56' E 031°59'0 0.0
2018-Feb-10 00:29N 46°56' E 031°59'0 0.0
2018-Feb-09 23:59N 46°56' E 031°59'0 0.0
2018-Feb-09 23:29N 46°56' E 031°59'0 0.0
2018-Feb-09 22:59N 46°56' E 031°59'0 0.0
2018-Feb-09 22:44N 46°56' E 031°59'  
Track history (hours):
 
Tides and Currents Weather Stations Pressure Air Temp Water Temp Dewpoint Dewpoint Depression Visibility Wind Speed Wind Dir Waves Ship Positions

Flag Hope

Last reported at 2018-Feb-19 18:06 UTC. Time now 2018-Feb-23 03:05 UTC.
Position N 46°13' E 030°56'.

Length 229 m; draft 13 m.

Type: Cargo ship. MMSI: 636015989.

Date/timePositionNaut miles runAvg speedWind from/ knotsBaromVisibWave heightAir tempDewpointWater temp
2018-Feb-19 18:06N 46°13' E 030°56'2 9.8
2018-Feb-19 17:51N 46°15' E 030°54'410.6
2018-Feb-19 17:29N 46°19' E 030°55'510.6
2018-Feb-19 16:58N 46°24' E 030°55'610.5
2018-Feb-19 16:23N 46°30' E 030°55'3 8.3
2018-Feb-19 16:00N 46°33' E 030°58'11 0.3
2018-Feb-17 23:19N 46°34' E 031°14'0 0.0
2018-Feb-17 22:58N 46°34' E 031°14'0 0.0
2018-Feb-17 22:28N 46°34' E 031°14'0 0.0
2018-Feb-17 21:58N 46°34' E 031°14'0 0.0
2018-Feb-17 21:28N 46°34' E 031°14'0 0.0
2018-Feb-17 20:58N 46°34' E 031°14'0 0.0
2018-Feb-17 20:28N 46°34' E 031°14'0 0.0
2018-Feb-17 19:58N 46°34' E 031°14'0 0.0
2018-Feb-17 19:28N 46°34' E 031°14'0 0.0
2018-Feb-17 18:58N 46°34' E 031°14'0 0.0
2018-Feb-17 18:28N 46°34' E 031°14'0 0.0
2018-Feb-17 17:58N 46°34' E 031°14'0 0.0
2018-Feb-17 17:28N 46°34' E 031°14'0 0.0
2018-Feb-17 16:58N 46°34' E 031°14'0 0.0
2018-Feb-17 16:28N 46°34' E 031°14'0 0.0
2018-Feb-17 15:58N 46°34' E 031°14'0 0.0
2018-Feb-17 15:28N 46°34' E 031°14'0 0.0
2018-Feb-17 14:58N 46°34' E 031°14'0 0.0
2018-Feb-17 14:28N 46°34' E 031°14'0 0.0
2018-Feb-17 13:58N 46°34' E 031°14'0 0.0
2018-Feb-17 13:28N 46°34' E 031°14'0 0.0
2018-Feb-17 12:58N 46°34' E 031°14'0 0.0
2018-Feb-17 12:28N 46°34' E 031°14'0 0.0
2018-Feb-17 11:58N 46°34' E 031°14'0 0.0
2018-Feb-17 11:28N 46°34' E 031°14'0 0.0
2018-Feb-17 10:58N 46°34' E 031°14'0 0.0
2018-Feb-17 10:25N 46°34' E 031°14'0 0.0
2018-Feb-17 09:55N 46°34' E 031°14'0 0.1
2018-Feb-17 09:28N 46°34' E 031°14'0 0.0
2018-Feb-17 08:58N 46°34' E 031°14'0 0.0
2018-Feb-17 08:25N 46°34' E 031°14'0 0.0
2018-Feb-17 07:58N 46°34' E 031°14'0 0.0
2018-Feb-17 07:28N 46°34' E 031°14'0 0.0
2018-Feb-17 06:31N 46°34' E 031°14'0 0.1
2018-Feb-17 06:28N 46°34' E 031°14'0 0.1
2018-Feb-17 05:55N 46°34' E 031°14'0 0.1
2018-Feb-17 02:37N 46°34' E 031°14'0 0.0
2018-Feb-17 00:13N 46°34' E 031°14'0 0.0
2018-Feb-16 23:55N 46°34' E 031°14'0 0.0
2018-Feb-16 23:22N 46°34' E 031°14'0 0.0
2018-Feb-16 22:55N 46°34' E 031°14'0 0.0
2018-Feb-16 20:37N 46°34' E 031°14'0 0.0
2018-Feb-16 20:13N 46°34' E 031°14'  
2018-Feb-14 11:51N 46°35' E 031°14'0 1.4
2018-Feb-14 11:29N 46°34' E 031°14'12 7.6
2018-Feb-14 09:54N 46°35' E 031°32'3 8.9
2018-Feb-14 09:30N 46°35' E 031°37'5 8.9
2018-Feb-14 09:00N 46°36' E 031°43'5 8.8
2018-Feb-14 08:28N 46°36' E 031°50'4 8.5
2018-Feb-14 08:01N 46°38' E 031°55'4 8.5
2018-Feb-14 07:29N 46°43' E 031°56'4 7.8
2018-Feb-14 07:00N 46°46' E 031°53'4 8.1
2018-Feb-14 06:30N 46°50' E 031°56'5 9.1
2018-Feb-14 06:00N 46°53' E 032°00'3 6.0
2018-Feb-14 05:30N 46°56' E 031°60'1 1.7
2018-Feb-14 04:59N 46°56' E 031°59'0 0.0
2018-Feb-14 04:29N 46°56' E 031°59'0 0.0
2018-Feb-14 03:59N 46°56' E 031°59'0 0.0
2018-Feb-14 03:29N 46°56' E 031°59'0 0.0
2018-Feb-14 02:59N 46°56' E 031°59'0 0.0
2018-Feb-14 02:29N 46°56' E 031°59'0 0.0
2018-Feb-14 01:59N 46°56' E 031°59'0 0.0
2018-Feb-14 01:29N 46°56' E 031°59'0 0.0
2018-Feb-14 00:59N 46°56' E 031°59'0 0.0
2018-Feb-14 00:29N 46°56' E 031°59'0 0.0
2018-Feb-13 23:59N 46°56' E 031°59'0 0.0
2018-Feb-13 23:29N 46°56' E 031°59'0 0.0
2018-Feb-13 22:59N 46°56' E 031°59'0 0.0
2018-Feb-13 22:29N 46°56' E 031°59'0 0.0
2018-Feb-13 21:59N 46°56' E 031°59'0 0.0
2018-Feb-13 21:29N 46°56' E 031°59'0 0.0
2018-Feb-13 20:59N 46°56' E 031°59'0 0.0
2018-Feb-13 20:29N 46°56' E 031°59'0 0.0
2018-Feb-13 19:59N 46°56' E 031°59'0 0.0
2018-Feb-13 19:29N 46°56' E 031°59'0 0.0
2018-Feb-13 18:59N 46°56' E 031°59'0 0.0
2018-Feb-13 18:29N 46°56' E 031°59'0 0.0
2018-Feb-13 17:59N 46°56' E 031°59'0 0.0
2018-Feb-13 17:29N 46°56' E 031°59'0 0.0
2018-Feb-13 16:59N 46°56' E 031°59'0 0.0
2018-Feb-13 16:29N 46°56' E 031°59'0 0.0
2018-Feb-13 15:59N 46°56' E 031°59'0 0.1
2018-Feb-13 15:29N 46°57' E 031°59'0 0.0
2018-Feb-13 14:59N 46°57' E 031°59'0 0.0
2018-Feb-13 14:29N 46°57' E 031°59'0 0.0
2018-Feb-13 13:59N 46°56' E 031°59'0 0.0
2018-Feb-13 13:29N 46°57' E 031°59'0 0.0
2018-Feb-13 12:59N 46°57' E 031°59'0 0.0
2018-Feb-13 12:29N 46°57' E 031°59'0 0.0
2018-Feb-13 11:59N 46°57' E 031°59'0 0.0
2018-Feb-13 11:29N 46°56' E 031°59'0 0.0
2018-Feb-13 10:59N 46°57' E 031°59'0 0.0
2018-Feb-13 10:29N 46°57' E 031°59'0 0.0
2018-Feb-13 09:59N 46°57' E 031°59'0 0.0
2018-Feb-13 09:29N 46°57' E 031°59'0 0.0
2018-Feb-13 08:59N 46°57' E 031°59'0 0.0
2018-Feb-13 08:29N 46°57' E 031°59'0 0.0
2018-Feb-13 07:59N 46°57' E 031°59'0 0.0
2018-Feb-13 07:29N 46°57' E 031°59'0 0.0
2018-Feb-13 06:59N 46°57' E 031°59'0 0.0
2018-Feb-13 06:29N 46°57' E 031°59'0 0.0
2018-Feb-13 05:59N 46°57' E 031°59'0 0.0
2018-Feb-13 05:29N 46°57' E 031°59'0 0.0
2018-Feb-13 04:59N 46°57' E 031°59'0 0.0
2018-Feb-13 04:29N 46°57' E 031°59'0 0.0
2018-Feb-13 03:59N 46°57' E 031°59'0 0.0
2018-Feb-13 03:29N 46°57' E 031°59'0 0.0
2018-Feb-13 02:59N 46°57' E 031°59'0 0.0
2018-Feb-13 02:29N 46°57' E 031°59'0 0.0
2018-Feb-13 01:59N 46°57' E 031°59'0 0.0
2018-Feb-13 01:29N 46°57' E 031°59'0 0.0
2018-Feb-13 00:59N 46°57' E 031°59'0 0.0
2018-Feb-13 00:29N 46°57' E 031°59'0 0.0
2018-Feb-12 23:59N 46°57' E 031°59'0 0.0
2018-Feb-12 23:29N 46°57' E 031°59'0 0.0
2018-Feb-12 22:59N 46°57' E 031°59'0 0.0
2018-Feb-12 22:29N 46°57' E 031°59'0 0.0
2018-Feb-12 21:59N 46°57' E 031°59'0 0.0
2018-Feb-12 21:29N 46°57' E 031°59'0 0.0
2018-Feb-12 20:59N 46°57' E 031°59'0 0.0
2018-Feb-12 20:29N 46°57' E 031°59'0 0.0
2018-Feb-12 19:59N 46°57' E 031°59'0 0.0
2018-Feb-12 19:29N 46°57' E 031°59'0 0.0
2018-Feb-12 18:59N 46°57' E 031°59'0 0.0
2018-Feb-12 18:29N 46°57' E 031°59'0 0.0
2018-Feb-12 17:59N 46°57' E 031°59'0 0.0
2018-Feb-12 17:29N 46°57' E 031°59'0 0.0
2018-Feb-12 16:59N 46°57' E 031°59'0 0.0
2018-Feb-12 16:29N 46°57' E 031°59'0 0.0
2018-Feb-12 15:59N 46°57' E 031°59'0 0.0
2018-Feb-12 15:17N 46°57' E 031°59'0 0.0
2018-Feb-12 14:59N 46°57' E 031°59'0 0.0
2018-Feb-12 14:29N 46°57' E 031°59'0 0.0
2018-Feb-12 13:59N 46°57' E 031°59'0 0.0
2018-Feb-12 13:26N 46°57' E 031°59'0 0.0
2018-Feb-12 12:59N 46°57' E 031°59'0 0.0
2018-Feb-12 12:29N 46°57' E 031°59'0 0.0
2018-Feb-12 11:59N 46°57' E 031°59'0 0.0
2018-Feb-12 11:29N 46°57' E 031°59'0 0.0
2018-Feb-12 10:59N 46°57' E 031°59'0 0.0
2018-Feb-12 10:29N 46°57' E 031°59'0 0.0
2018-Feb-12 09:59N 46°57' E 031°59'0 0.0
2018-Feb-12 09:29N 46°57' E 031°59'0 0.0
2018-Feb-12 08:59N 46°57' E 031°59'0 0.0
2018-Feb-12 08:29N 46°57' E 031°59'0 0.0
2018-Feb-12 07:59N 46°57' E 031°59'0 0.0
2018-Feb-12 07:29N 46°57' E 031°59'0 0.0
2018-Feb-12 06:59N 46°57' E 031°59'0 0.0
2018-Feb-12 06:29N 46°57' E 031°59'0 0.0
2018-Feb-12 05:59N 46°57' E 031°59'0 0.0
2018-Feb-12 05:29N 46°57' E 031°59'0 0.0
2018-Feb-12 04:59N 46°57' E 031°59'0 0.0
2018-Feb-12 04:29N 46°57' E 031°59'0 0.0
2018-Feb-12 03:59N 46°57' E 031°59'0 0.0
2018-Feb-12 03:29N 46°57' E 031°59'0 0.0
2018-Feb-12 02:59N 46°57' E 031°59'0 0.0
2018-Feb-12 02:29N 46°57' E 031°59'0 0.0
2018-Feb-12 01:59N 46°56' E 031°59'0 0.0
2018-Feb-12 01:29N 46°57' E 031°59'0 0.0
2018-Feb-12 00:59N 46°57' E 031°59'0 0.0
2018-Feb-12 00:29N 46°57' E 031°59'0 0.0
2018-Feb-11 23:59N 46°57' E 031°59'0 0.0
2018-Feb-11 23:29N 46°57' E 031°59'0 0.0
2018-Feb-11 22:59N 46°57' E 031°59'0 0.0
2018-Feb-11 22:29N 46°56' E 031°59'0 0.0
2018-Feb-11 21:59N 46°57' E 031°59'0 0.0
2018-Feb-11 21:29N 46°57' E 031°59'0 0.0
2018-Feb-11 20:59N 46°57' E 031°59'0 0.0
2018-Feb-11 20:29N 46°57' E 031°59'0 0.0
2018-Feb-11 19:59N 46°57' E 031°59'0 0.0
2018-Feb-11 19:29N 46°57' E 031°59'0 0.0
2018-Feb-11 18:59N 46°57' E 031°59'0 0.0
2018-Feb-11 18:29N 46°57' E 031°59'0 0.0
2018-Feb-11 17:59N 46°57' E 031°59'0 0.0
2018-Feb-11 17:29N 46°57' E 031°59'0 0.0
2018-Feb-11 16:59N 46°57' E 031°59'0 0.0
2018-Feb-11 16:29N 46°57' E 031°59'0 0.0
2018-Feb-11 15:59N 46°57' E 031°59'0 0.0
2018-Feb-11 15:29N 46°57' E 031°59'0 0.0
2018-Feb-11 14:59N 46°57' E 031°59'0 0.0
2018-Feb-11 14:29N 46°57' E 031°59'0 0.0
2018-Feb-11 13:59N 46°57' E 031°59'0 0.0
2018-Feb-11 13:29N 46°57' E 031°59'0 0.0
2018-Feb-11 12:59N 46°57' E 031°59'0 0.0
2018-Feb-11 12:29N 46°57' E 031°59'0 0.0
2018-Feb-11 11:59N 46°57' E 031°59'0 0.0
2018-Feb-11 11:29N 46°56' E 031°59'0 0.0
2018-Feb-11 10:59N 46°56' E 031°59'0 0.0
2018-Feb-11 10:29N 46°57' E 031°59'0 0.0
2018-Feb-11 09:59N 46°57' E 031°59'0 0.0
2018-Feb-11 09:29N 46°57' E 031°59'0 0.0
2018-Feb-11 08:59N 46°57' E 031°59'0 0.0
2018-Feb-11 08:29N 46°57' E 031°59'0 0.0
2018-Feb-11 07:59N 46°57' E 031°59'0 0.0
2018-Feb-11 07:29N 46°57' E 031°59'0 0.0
2018-Feb-11 06:59N 46°57' E 031°59'0 0.0
2018-Feb-11 06:29N 46°57' E 031°59'0 0.0
2018-Feb-11 05:59N 46°57' E 031°59'0 0.0
2018-Feb-11 05:29N 46°57' E 031°59'0 0.0
2018-Feb-11 04:59N 46°57' E 031°59'0 0.0
2018-Feb-11 04:29N 46°57' E 031°59'0 0.0
2018-Feb-11 03:59N 46°57' E 031°59'0 0.0
2018-Feb-11 03:29N 46°57' E 031°59'0 0.0
2018-Feb-11 02:59N 46°57' E 031°59'0 0.0
2018-Feb-11 02:29N 46°57' E 031°59'0 0.0
2018-Feb-11 01:59N 46°57' E 031°59'0 0.0
2018-Feb-11 01:29N 46°56' E 031°59'0 0.0
2018-Feb-11 00:59N 46°57' E 031°59'0 0.0
2018-Feb-11 00:29N 46°57' E 031°59'0 0.0
2018-Feb-10 23:59N 46°57' E 031°59'0 0.0
2018-Feb-10 23:29N 46°57' E 031°59'0 0.0
2018-Feb-10 22:59N 46°57' E 031°59'0 0.0
2018-Feb-10 22:29N 46°57' E 031°59'0 0.0
2018-Feb-10 21:59N 46°57' E 031°59'0 0.0
2018-Feb-10 21:29N 46°57' E 031°59'0 0.0
2018-Feb-10 20:59N 46°57' E 031°59'0 0.0
2018-Feb-10 20:29N 46°57' E 031°59'0 0.0
2018-Feb-10 19:59N 46°57' E 031°59'0 0.0
2018-Feb-10 19:29N 46°57' E 031°59'0 0.0
2018-Feb-10 18:59N 46°57' E 031°59'0 0.0
2018-Feb-10 18:29N 46°57' E 031°59'0 0.0
2018-Feb-10 17:59N 46°57' E 031°59'0 0.0
2018-Feb-10 17:29N 46°57' E 031°59'0 0.0
2018-Feb-10 16:59N 46°57' E 031°59'0 0.0
2018-Feb-10 16:29N 46°57' E 031°59'0 0.0
2018-Feb-10 15:59N 46°57' E 031°59'0 0.0
2018-Feb-10 15:29N 46°57' E 031°59'0 0.0
2018-Feb-10 14:59N 46°57' E 031°59'0 0.1
2018-Feb-10 14:29N 46°56' E 031°59'0 0.0
2018-Feb-10 13:59N 46°56' E 031°59'0 0.0
2018-Feb-10 13:29N 46°56' E 031°59'0 0.0
2018-Feb-10 12:59N 46°56' E 031°59'0 0.0
2018-Feb-10 12:29N 46°56' E 031°59'0 0.0
2018-Feb-10 11:59N 46°56' E 031°59'0 0.0
2018-Feb-10 11:29N 46°56' E 031°59'0 0.0
2018-Feb-10 10:59N 46°56' E 031°59'0 0.0
2018-Feb-10 10:29N 46°56' E 031°59'0 0.0
2018-Feb-10 09:59N 46°56' E 031°59'0 0.0
2018-Feb-10 09:29N 46°56' E 031°59'0 0.0
2018-Feb-10 08:59N 46°56' E 031°59'0 0.0
2018-Feb-10 08:29N 46°56' E 031°59'0 0.0
2018-Feb-10 07:59N 46°56' E 031°59'0 0.0
2018-Feb-10 07:29N 46°56' E 031°59'0 0.0
2018-Feb-10 06:59N 46°56' E 031°59'0 0.0
2018-Feb-10 06:29N 46°56' E 031°59'0 0.0
2018-Feb-10 05:59N 46°56' E 031°59'0 0.0
2018-Feb-10 05:29N 46°56' E 031°59'0 0.0
2018-Feb-10 04:59N 46°56' E 031°59'0 0.0
2018-Feb-10 04:29N 46°56' E 031°59'0 0.0
2018-Feb-10 03:59N 46°56' E 031°59'0 0.0
2018-Feb-10 03:29N 46°56' E 031°59'0 0.0
2018-Feb-10 02:59N 46°56' E 031°59'0 0.0
2018-Feb-10 02:29N 46°56' E 031°59'0 0.0
2018-Feb-10 01:59N 46°56' E 031°59'0 0.0
2018-Feb-10 01:29N 46°56' E 031°59'0 0.0
2018-Feb-10 00:59N 46°56' E 031°59'0 0.0
2018-Feb-10 00:29N 46°56' E 031°59'0 0.0
2018-Feb-09 23:59N 46°56' E 031°59'0 0.0
2018-Feb-09 23:29N 46°56' E 031°59'0 0.0
2018-Feb-09 22:59N 46°56' E 031°59'0 0.0
2018-Feb-09 22:44N 46°56' E 031°59'  

Dump ship's entire track history